sensor_id;sensor_type;location;lat;lon;timestamp;pressure;altitude;pressure_sealevel;temperature;humidity
75418;BME280;63997;52.112;5.420;2023-10-09T00:02:12;102102.78;;;13.65;100.00
75418;BME280;63997;52.112;5.420;2023-10-09T00:04:41;102109.84;;;13.61;100.00
75418;BME280;63997;52.112;5.420;2023-10-09T00:07:12;102113.31;;;13.61;100.00
75418;BME280;63997;52.112;5.420;2023-10-09T00:09:39;102109.06;;;13.60;100.00
75418;BME280;63997;52.112;5.420;2023-10-09T00:12:18;102107.78;;;13.58;100.00
75418;BME280;63997;52.112;5.420;2023-10-09T00:14:54;102101.34;;;13.59;100.00
75418;BME280;63997;52.112;5.420;2023-10-09T00:17:34;102094.13;;;13.59;100.00
75418;BME280;63997;52.112;5.420;2023-10-09T00:20:00;102093.03;;;13.60;100.00
75418;BME280;63997;52.112;5.420;2023-10-09T00:22:34;102099.16;;;13.61;100.00
75418;BME280;63997;52.112;5.420;2023-10-09T00:25:08;102091.13;;;13.61;100.00
75418;BME280;63997;52.112;5.420;2023-10-09T00:27:38;102098.56;;;13.64;100.00
75418;BME280;63997;52.112;5.420;2023-10-09T00:30:10;102098.56;;;13.64;100.00
75418;BME280;63997;52.112;5.420;2023-10-09T00:32:41;102107.03;;;13.66;100.00
75418;BME280;63997;52.112;5.420;2023-10-09T00:35:11;102107.16;;;13.61;100.00
75418;BME280;63997;52.112;5.420;2023-10-09T00:37:56;102107.78;;;13.58;100.00
75418;BME280;63997;52.112;5.420;2023-10-09T00:40:32;102108.41;;;13.55;100.00
75418;BME280;63997;52.112;5.420;2023-10-09T00:43:02;102099.91;;;13.53;100.00
75418;BME280;63997;52.112;5.420;2023-10-09T00:45:37;102104.63;;;13.56;100.00
75418;BME280;63997;52.112;5.420;2023-10-09T00:48:07;102093.94;;;13.56;100.00
75418;BME280;63997;52.112;5.420;2023-10-09T00:50:40;102090.66;;;13.59;100.00
75418;BME280;63997;52.112;5.420;2023-10-09T00:53:15;102099.34;;;13.64;100.00
75418;BME280;63997;52.112;5.420;2023-10-09T00:55:44;102099.47;;;13.68;100.00
75418;BME280;63997;52.112;5.420;2023-10-09T00:58:14;102090.06;;;13.70;100.00
75418;BME280;63997;52.112;5.420;2023-10-09T01:00:42;102082.22;;;13.74;100.00
75418;BME280;63997;52.112;5.420;2023-10-09T01:03:13;102075.78;;;13.75;100.00
75418;BME280;63997;52.112;5.420;2023-10-09T01:05:50;102078.94;;;13.77;100.00
75418;BME280;63997;52.112;5.420;2023-10-09T01:08:32;102072.66;;;13.82;100.00
75418;BME280;63997;52.112;5.420;2023-10-09T01:22:11;102059.00;;;13.92;100.00
75418;BME280;63997;52.112;5.420;2023-10-09T01:24:42;102057.91;;;13.93;100.00
75418;BME280;63997;52.112;5.420;2023-10-09T01:27:10;102060.72;;;13.96;100.00
75418;BME280;63997;52.112;5.420;2023-10-09T01:29:43;102062.78;;;13.99;100.00
75418;BME280;63997;52.112;5.420;2023-10-09T01:32:10;102051.75;;;14.01;100.00
75418;BME280;63997;52.112;5.420;2023-10-09T01:34:44;102051.16;;;14.04;100.00
75418;BME280;63997;52.112;5.420;2023-10-09T01:37:16;102062.31;;;14.06;100.00
75418;BME280;63997;52.112;5.420;2023-10-09T01:39:50;102058.25;;;14.09;100.00
75418;BME280;63997;52.112;5.420;2023-10-09T01:42:18;102053.38;;;14.11;100.00
75418;BME280;63997;52.112;5.420;2023-10-09T01:45:01;102049.25;;;14.13;100.00
75418;BME280;63997;52.112;5.420;2023-10-09T01:47:37;102044.09;;;14.17;100.00
75418;BME280;63997;52.112;5.420;2023-10-09T01:50:07;102045.66;;;14.18;100.00
75418;BME280;63997;52.112;5.420;2023-10-09T01:52:48;102042.66;;;14.19;100.00
75418;BME280;63997;52.112;5.420;2023-10-09T01:55:16;102046.16;;;14.20;100.00
75418;BME280;63997;52.112;5.420;2023-10-09T01:57:55;102046.16;;;14.20;100.00
75418;BME280;63997;52.112;5.420;2023-10-09T02:00:34;102038.91;;;14.20;100.00
75418;BME280;63997;52.112;5.420;2023-10-09T02:03:08;102028.97;;;14.21;100.00
75418;BME280;63997;52.112;5.420;2023-10-09T02:05:41;102027.88;;;14.22;100.00
75418;BME280;63997;52.112;5.420;2023-10-09T02:08:08;102028.66;;;14.22;100.00
75418;BME280;63997;52.112;5.420;2023-10-09T02:10:34;102028.97;;;14.21;100.00
75418;BME280;63997;52.112;5.420;2023-10-09T02:13:05;102025.53;;;14.20;100.00
75418;BME280;63997;52.112;5.420;2023-10-09T02:15:39;102012.94;;;14.21;100.00
75418;BME280;63997;52.112;5.420;2023-10-09T02:18:10;102017.19;;;14.22;100.00
75418;BME280;63997;52.112;5.420;2023-10-09T02:23:34;102009.16;;;14.22;100.00
75418;BME280;63997;52.112;5.420;2023-10-09T02:26:27;102012.28;;;14.24;100.00
75418;BME280;63997;52.112;5.420;2023-10-09T02:29:06;101999.22;;;14.22;100.00
75418;BME280;63997;52.112;5.420;2023-10-09T02:31:35;102012.94;;;14.21;100.00
75418;BME280;63997;52.112;5.420;2023-10-09T02:34:02;101997.66;;;14.21;100.00
75418;BME280;63997;52.112;5.420;2023-10-09T02:36:31;102000.00;;;14.23;100.00
75418;BME280;63997;52.112;5.420;2023-10-09T02:39:01;102003.16;;;14.25;100.00
75418;BME280;63997;52.112;5.420;2023-10-09T02:41:31;101997.50;;;14.26;100.00
75418;BME280;63997;52.112;5.420;2023-10-09T02:44:00;101998.28;;;14.27;100.00
75418;BME280;63997;52.112;5.420;2023-10-09T02:46:37;101987.59;;;14.27;100.00
75418;BME280;63997;52.112;5.420;2023-10-09T02:49:06;101982.69;;;14.29;100.00
75418;BME280;63997;52.112;5.420;2023-10-09T02:51:35;101982.69;;;14.29;100.00
75418;BME280;63997;52.112;5.420;2023-10-09T02:54:08;101979.69;;;14.30;100.00
75418;BME280;63997;52.112;5.420;2023-10-09T02:56:46;101980.50;;;14.31;100.00
75418;BME280;63997;52.112;5.420;2023-10-09T02:59:14;101980.19;;;14.33;100.00
75418;BME280;63997;52.112;5.420;2023-10-09T03:01:41;101975.63;;;14.33;100.00
75418;BME280;63997;52.112;5.420;2023-10-09T03:04:07;101962.25;;;14.33;100.00
75418;BME280;63997;52.112;5.420;2023-10-09T03:06:37;101961.91;;;14.35;100.00
75418;BME280;63997;52.112;5.420;2023-10-09T03:09:19;101957.06;;;14.37;100.00
75418;BME280;63997;52.112;5.420;2023-10-09T03:11:57;101954.84;;;14.39;100.00
75418;BME280;63997;52.112;5.420;2023-10-09T03:14:35;101967.88;;;14.40;100.00
75418;BME280;63997;52.112;5.420;2023-10-09T03:17:04;101965.22;;;14.40;100.00
75418;BME280;63997;52.112;5.420;2023-10-09T03:19:32;101958.75;;;14.41;100.00
75418;BME280;63997;52.112;5.420;2023-10-09T03:22:05;101961.91;;;14.43;100.00
75418;BME280;63997;52.112;5.420;2023-10-09T03:24:38;101958.91;;;14.45;100.00
75418;BME280;63997;52.112;5.420;2023-10-09T03:27:11;101955.91;;;14.46;100.00
75418;BME280;63997;52.112;5.420;2023-10-09T03:29:38;101958.31;;;14.48;100.00
75418;BME280;63997;52.112;5.420;2023-10-09T03:32:04;101948.41;;;14.48;100.00
75418;BME280;63997;52.112;5.420;2023-10-09T03:34:32;101956.72;;;14.47;100.00
75418;BME280;63997;52.112;5.420;2023-10-09T03:36:59;101963.69;;;14.48;100.00
75418;BME280;63997;52.112;5.420;2023-10-09T03:39:32;101957.03;;;14.45;100.00
75418;BME280;63997;52.112;5.420;2023-10-09T03:42:02;101946.81;;;14.47;100.00
75418;BME280;63997;52.112;5.420;2023-10-09T03:44:32;101943.03;;;14.48;100.00
75418;BME280;63997;52.112;5.420;2023-10-09T03:47:00;101954.03;;;14.47;100.00
75418;BME280;63997;52.112;5.420;2023-10-09T03:49:30;101981.09;;;14.45;100.00
75418;BME280;63997;52.112;5.420;2023-10-09T03:51:58;101992.31;;;14.47;100.00
75418;BME280;63997;52.112;5.420;2023-10-09T03:54:25;102003.50;;;14.49;100.00
75418;BME280;63997;52.112;5.420;2023-10-09T03:56:56;102007.41;;;14.52;100.00
75418;BME280;63997;52.112;5.420;2023-10-09T03:59:25;102004.44;;;14.53;100.00
75418;BME280;63997;52.112;5.420;2023-10-09T04:01:56;101999.09;;;14.53;100.00
75418;BME280;63997;52.112;5.420;2023-10-09T04:04:24;101994.38;;;14.59;100.00
75418;BME280;63997;52.112;5.420;2023-10-09T04:06:51;101991.81;;;14.63;100.00
75418;BME280;63997;52.112;5.420;2023-10-09T04:09:18;101994.66;;;14.66;100.00
75418;BME280;63997;52.112;5.420;2023-10-09T04:11:48;101997.78;;;14.68;100.00
75418;BME280;63997;52.112;5.420;2023-10-09T04:14:23;101989.91;;;14.72;100.00
75418;BME280;63997;52.112;5.420;2023-10-09T04:17:13;101998.41;;;14.74;100.00
75418;BME280;63997;52.112;5.420;2023-10-09T04:19:49;101998.41;;;14.74;100.00
75418;BME280;63997;52.112;5.420;2023-10-09T04:22:36;101987.69;;;14.74;100.00
75418;BME280;63997;52.112;5.420;2023-10-09T04:25:09;101980.94;;;14.76;100.00
75418;BME280;63997;52.112;5.420;2023-10-09T04:27:41;101988.19;;;14.76;100.00
75418;BME280;63997;52.112;5.420;2023-10-09T04:30:08;101983.13;;;14.74;100.00
75418;BME280;63997;52.112;5.420;2023-10-09T04:32:41;101983.91;;;14.75;100.00
75418;BME280;63997;52.112;5.420;2023-10-09T04:35:11;101971.31;;;14.75;100.00
75418;BME280;63997;52.112;5.420;2023-10-09T04:37:50;101958.84;;;14.79;100.00
75418;BME280;63997;52.112;5.420;2023-10-09T04:40:31;101949.72;;;14.80;100.00
75418;BME280;63997;52.112;5.420;2023-10-09T04:43:03;101972.72;;;14.81;100.00
75418;BME280;63997;52.112;5.420;2023-10-09T04:45:36;101975.41;;;14.81;100.00
75418;BME280;63997;52.112;5.420;2023-10-09T04:48:22;101977.75;;;14.83;100.00
75418;BME280;63997;52.112;5.420;2023-10-09T04:51:14;101976.66;;;14.84;100.00
75418;BME280;63997;52.112;5.420;2023-10-09T04:53:48;101962.63;;;14.87;100.00
75418;BME280;63997;52.112;5.420;2023-10-09T04:56:21;101960.88;;;14.91;100.00
75418;BME280;63997;52.112;5.420;2023-10-09T04:58:50;101967.78;;;14.92;100.00
75418;BME280;63997;52.112;5.420;2023-10-09T05:01:30;101971.75;;;14.95;100.00
75418;BME280;63997;52.112;5.420;2023-10-09T05:04:04;101969.22;;;14.98;100.00
75418;BME280;63997;52.112;5.420;2023-10-09T05:06:50;101980.38;;;15.00;100.00
75418;BME280;63997;52.112;5.420;2023-10-09T05:09:23;101960.53;;;15.01;100.00
75418;BME280;63997;52.112;5.420;2023-10-09T05:11:50;101969.81;;;15.04;100.00
75418;BME280;63997;52.112;5.420;2023-10-09T05:14:20;101980.22;;;15.05;100.00
75418;BME280;63997;52.112;5.420;2023-10-09T05:16:54;101972.63;;;15.07;100.00
75418;BME280;63997;52.112;5.420;2023-10-09T05:19:22;101967.75;;;15.10;100.00
75418;BME280;63997;52.112;5.420;2023-10-09T05:22:09;101975.13;;;15.13;100.00
75418;BME280;63997;52.112;5.420;2023-10-09T05:24:57;101988.97;;;15.15;100.00
75418;BME280;63997;52.112;5.420;2023-10-09T05:27:24;102003.19;;;15.15;100.00
75418;BME280;63997;52.112;5.420;2023-10-09T05:30:11;102002.09;;;15.16;100.00
75418;BME280;63997;52.112;5.420;2023-10-09T05:32:54;102011.38;;;15.19;100.00
75418;BME280;63997;52.112;5.420;2023-10-09T05:35:25;102003.66;;;15.17;100.00
75418;BME280;63997;52.112;5.420;2023-10-09T05:38:12;102006.34;;;15.17;100.00
75418;BME280;63997;52.112;5.420;2023-10-09T05:40:50;102014.53;;;15.21;100.00
75418;BME280;63997;52.112;5.420;2023-10-09T05:43:21;102014.31;;;15.26;100.00
75418;BME280;63997;52.112;5.420;2023-10-09T05:46:06;102020.50;;;15.26;100.00
75418;BME280;63997;52.112;5.420;2023-10-09T05:48:36;102021.28;;;15.27;100.00
75418;BME280;63997;52.112;5.420;2023-10-09T05:51:06;102026.63;;;15.27;100.00
75418;BME280;63997;52.112;5.420;2023-10-09T05:53:35;102035.91;;;15.29;100.00
75418;BME280;63997;52.112;5.420;2023-10-09T05:56:11;102033.56;;;15.28;100.00
75418;BME280;63997;52.112;5.420;2023-10-09T05:58:56;102036.69;;;15.30;100.00
75418;BME280;63997;52.112;5.420;2023-10-09T06:01:41;102026.75;;;15.30;100.00
75418;BME280;63997;52.112;5.420;2023-10-09T06:04:17;102026.13;;;15.33;100.00
75418;BME280;63997;52.112;5.420;2023-10-09T06:06:46;102007.03;;;15.35;100.00
75418;BME280;63997;52.112;5.420;2023-10-09T06:09:22;101981.16;;;15.39;100.00
75418;BME280;63997;52.112;5.420;2023-10-09T06:12:09;101970.72;;;15.46;100.00
75418;BME280;63997;52.112;5.420;2023-10-09T06:15:00;101964.72;;;15.49;100.00
75418;BME280;63997;52.112;5.420;2023-10-09T06:17:46;101978.56;;;15.51;100.00
75418;BME280;63997;52.112;5.420;2023-10-09T06:20:19;101978.72;;;15.55;100.00
75418;BME280;63997;52.112;5.420;2023-10-09T06:23:08;101992.56;;;15.57;100.00
75418;BME280;63997;52.112;5.420;2023-10-09T06:25:50;101990.69;;;15.57;100.00
75418;BME280;63997;52.112;5.420;2023-10-09T06:28:19;101983.41;;;15.58;100.00
75418;BME280;63997;52.112;5.420;2023-10-09T06:30:59;101976.16;;;15.58;100.00
75418;BME280;63997;52.112;5.420;2023-10-09T06:33:45;101968.59;;;15.60;100.00
75418;BME280;63997;52.112;5.420;2023-10-09T06:36:32;101982.00;;;15.60;100.00
75418;BME280;63997;52.112;5.420;2023-10-09T06:38:58;101987.03;;;15.62;100.00
75418;BME280;63997;52.112;5.420;2023-10-09T06:41:43;101987.50;;;15.64;100.00
75418;BME280;63997;52.112;5.420;2023-10-09T06:44:11;102003.28;;;15.66;100.00
75418;BME280;63997;52.112;5.420;2023-10-09T06:46:58;102032.81;;;15.66;100.00
75418;BME280;63997;52.112;5.420;2023-10-09T06:49:27;102016.72;;;15.66;100.00
75418;BME280;63997;52.112;5.420;2023-10-09T06:51:59;102029.00;;;15.67;100.00
75418;BME280;63997;52.112;5.420;2023-10-09T06:54:40;102032.91;;;15.69;100.00
75418;BME280;63997;52.112;5.420;2023-10-09T06:57:16;102032.59;;;15.71;100.00
75418;BME280;63997;52.112;5.420;2023-10-09T07:00:03;102026.25;;;15.75;100.00
75418;BME280;63997;52.112;5.420;2023-10-09T07:03:02;102026.06;;;15.80;100.00
75418;BME280;63997;52.112;5.420;2023-10-09T07:05:38;102025.44;;;15.83;100.00
75418;BME280;63997;52.112;5.420;2023-10-09T07:08:23;102019.06;;;15.88;100.00
75418;BME280;63997;52.112;5.420;2023-10-09T07:11:01;102025.38;;;15.92;100.00
75418;BME280;63997;52.112;5.420;2023-10-09T07:13:46;102025.50;;;15.96;100.00
75418;BME280;63997;52.112;5.420;2023-10-09T07:16:22;102025.63;;;15.99;100.00
75418;BME280;63997;52.112;5.420;2023-10-09T07:19:05;102043.31;;;16.00;100.00
75418;BME280;63997;52.112;5.420;2023-10-09T07:21:57;102018.50;;;16.03;100.00
75418;BME280;63997;52.112;5.420;2023-10-09T07:24:32;102025.13;;;16.06;100.00
75418;BME280;63997;52.112;5.420;2023-10-09T07:27:10;102026.34;;;16.08;100.00
75418;BME280;63997;52.112;5.420;2023-10-09T07:29:41;101999.97;;;16.10;100.00
75418;BME280;63997;52.112;5.420;2023-10-09T07:32:17;101987.81;;;16.13;100.00
75418;BME280;63997;52.112;5.420;2023-10-09T07:34:50;101964.09;;;16.15;100.00
75418;BME280;63997;52.112;5.420;2023-10-09T07:37:26;101965.34;;;16.18;100.00
75418;BME280;63997;52.112;5.420;2023-10-09T07:40:05;101952.03;;;16.21;100.00
75418;BME280;63997;52.112;5.420;2023-10-09T07:42:34;101942.22;;;16.25;100.00
75418;BME280;63997;52.112;5.420;2023-10-09T07:45:12;101956.22;;;16.31;100.00
75418;BME280;63997;52.112;5.420;2023-10-09T07:47:50;101978.72;;;16.38;100.00
75418;BME280;63997;52.112;5.420;2023-10-09T07:50:26;101995.88;;;16.46;100.00
75418;BME280;63997;52.112;5.420;2023-10-09T07:53:16;101996.13;;;16.53;100.00
75418;BME280;63997;52.112;5.420;2023-10-09T07:55:54;102007.13;;;16.60;100.00
75418;BME280;63997;52.112;5.420;2023-10-09T07:58:22;102022.25;;;16.65;100.00
75418;BME280;63997;52.112;5.420;2023-10-09T08:00:55;102026.31;;;16.71;100.00
75418;BME280;63997;52.112;5.420;2023-10-09T08:03:34;102028.59;;;16.81;100.00
75418;BME280;63997;52.112;5.420;2023-10-09T08:06:02;102023.44;;;16.88;100.00
75418;BME280;63997;52.112;5.420;2023-10-09T08:08:47;102014.41;;;16.93;100.00
75418;BME280;63997;52.112;5.420;2023-10-09T08:11:30;102023.03;;;16.99;100.00
75418;BME280;63997;52.112;5.420;2023-10-09T08:14:12;102035.91;;;17.05;100.00
75418;BME280;63997;52.112;5.420;2023-10-09T08:16:58;102038.38;;;17.10;100.00
75418;BME280;63997;52.112;5.420;2023-10-09T08:19:50;102034.56;;;17.11;100.00
75418;BME280;63997;52.112;5.420;2023-10-09T08:22:30;102036.59;;;17.14;100.00
75418;BME280;63997;52.112;5.420;2023-10-09T08:24:57;102035.16;;;17.17;100.00
75418;BME280;63997;52.112;5.420;2023-10-09T08:30:03;102030.13;;;17.28;100.00
75418;BME280;63997;52.112;5.420;2023-10-09T08:32:47;102037.97;;;17.33;100.00
75418;BME280;63997;52.112;5.420;2023-10-09T08:35:31;102040.00;;;17.36;100.00
75418;BME280;63997;52.112;5.420;2023-10-09T08:38:01;102057.47;;;17.42;100.00
75418;BME280;63997;52.112;5.420;2023-10-09T08:40:37;102074.53;;;17.46;100.00
75418;BME280;63997;52.112;5.420;2023-10-09T08:43:18;102083.25;;;17.55;100.00
75418;BME280;63997;52.112;5.420;2023-10-09T08:45:53;102088.88;;;17.62;100.00
75418;BME280;63997;52.112;5.420;2023-10-09T08:48:20;102076.00;;;17.68;99.28
75418;BME280;63997;52.112;5.420;2023-10-09T08:50:53;102076.31;;;17.79;98.91
75418;BME280;63997;52.112;5.420;2023-10-09T08:53:22;102071.19;;;17.86;98.96
75418;BME280;63997;52.112;5.420;2023-10-09T08:55:50;102078.69;;;17.92;98.44
75418;BME280;63997;52.112;5.420;2023-10-09T08:58:18;102092.25;;;17.96;97.57
75418;BME280;63997;52.112;5.420;2023-10-09T09:01:32;102083.94;;;18.01;96.82
75418;BME280;63997;52.112;5.420;2023-10-09T09:03:59;102085.28;;;18.07;97.25
75418;BME280;63997;52.112;5.420;2023-10-09T09:06:36;102089.63;;;18.12;97.00
75418;BME280;63997;52.112;5.420;2023-10-09T09:09:12;102085.94;;;18.16;96.93
75418;BME280;63997;52.112;5.420;2023-10-09T09:11:43;102088.38;;;18.21;96.77
75418;BME280;63997;52.112;5.420;2023-10-09T09:14:15;102090.50;;;18.28;96.80
75418;BME280;63997;52.112;5.420;2023-10-09T09:16:48;102075.34;;;18.36;95.60
75418;BME280;63997;52.112;5.420;2023-10-09T09:19:15;102088.66;;;18.44;95.17
75418;BME280;63997;52.112;5.420;2023-10-09T09:21:56;102097.75;;;18.52;93.93
75418;BME280;63997;52.112;5.420;2023-10-09T09:24:25;102100.97;;;18.58;93.89
75418;BME280;63997;52.112;5.420;2023-10-09T09:26:57;102109.81;;;18.70;94.20
75418;BME280;63997;52.112;5.420;2023-10-09T09:32:04;102114.56;;;18.89;92.95
75418;BME280;63997;52.112;5.420;2023-10-09T09:34:44;102112.50;;;18.98;92.12
75418;BME280;63997;52.112;5.420;2023-10-09T09:37:20;102097.63;;;19.05;91.73
75418;BME280;63997;52.112;5.420;2023-10-09T09:39:47;102109.97;;;19.06;90.46
75418;BME280;63997;52.112;5.420;2023-10-09T09:42:22;102103.56;;;19.10;91.07
75418;BME280;63997;52.112;5.420;2023-10-09T09:44:55;102106.69;;;19.12;90.24
75418;BME280;63997;52.112;5.420;2023-10-09T09:47:23;102105.22;;;19.15;90.24
75418;BME280;63997;52.112;5.420;2023-10-09T09:49:57;102097.31;;;19.22;90.36
75418;BME280;63997;52.112;5.420;2023-10-09T09:52:30;102099.66;;;19.23;89.48
75418;BME280;63997;52.112;5.420;2023-10-09T09:55:10;102099.41;;;19.28;89.64
75418;BME280;63997;52.112;5.420;2023-10-09T09:57:49;102104.19;;;19.35;89.55
75418;BME280;63997;52.112;5.420;2023-10-09T10:00:20;102106.19;;;19.38;89.79
75418;BME280;63997;52.112;5.420;2023-10-09T10:03:30;102107.91;;;19.46;90.58
75418;BME280;63997;52.112;5.420;2023-10-09T10:06:00;102102.53;;;19.46;89.14
75418;BME280;63997;52.112;5.420;2023-10-09T10:08:36;102102.63;;;19.50;89.22
75418;BME280;63997;52.112;5.420;2023-10-09T10:11:06;102104.03;;;19.60;90.27
75418;BME280;63997;52.112;5.420;2023-10-09T10:16:10;102100.72;;;19.66;88.62
75418;BME280;63997;52.112;5.420;2023-10-09T10:19:00;102098.13;;;19.70;89.38
75418;BME280;63997;52.112;5.420;2023-10-09T10:21:34;102099.41;;;19.76;89.70
75418;BME280;63997;52.112;5.420;2023-10-09T10:29:38;102105.41;;;19.69;86.21
75418;BME280;63997;52.112;5.420;2023-10-09T10:32:05;102112.41;;;19.70;86.75
75418;BME280;63997;52.112;5.420;2023-10-09T10:34:53;102122.56;;;19.77;87.71
75418;BME280;63997;52.112;5.420;2023-10-09T10:40:23;102130.47;;;19.86;87.49
75418;BME280;63997;52.112;5.420;2023-10-09T10:43:05;102124.03;;;19.90;86.48
75418;BME280;63997;52.112;5.420;2023-10-09T10:46:05;102124.69;;;20.03;86.86
75418;BME280;63997;52.112;5.420;2023-10-09T10:48:41;102128.00;;;20.12;86.99
75418;BME280;63997;52.112;5.420;2023-10-09T10:51:13;102123.50;;;20.20;86.41
75418;BME280;63997;52.112;5.420;2023-10-09T10:53:52;102108.16;;;20.24;86.62
75418;BME280;63997;52.112;5.420;2023-10-09T10:56:21;102118.97;;;20.24;85.23
75418;BME280;63997;52.112;5.420;2023-10-09T10:59:01;102124.47;;;20.27;85.61
75418;BME280;63997;52.112;5.420;2023-10-09T11:01:31;102116.09;;;20.32;85.39
75418;BME280;63997;52.112;5.420;2023-10-09T11:04:20;102116.50;;;20.34;85.22
75418;BME280;63997;52.112;5.420;2023-10-09T11:06:57;102124.34;;;20.40;83.93
75418;BME280;63997;52.112;5.420;2023-10-09T11:09:46;102119.88;;;20.47;83.41
75418;BME280;63997;52.112;5.420;2023-10-09T11:15:13;102111.97;;;20.58;83.78
75418;BME280;63997;52.112;5.420;2023-10-09T11:18:02;102107.84;;;20.64;83.92
75418;BME280;63997;52.112;5.420;2023-10-09T11:20:50;102113.53;;;20.78;83.86
75418;BME280;63997;52.112;5.420;2023-10-09T11:23:31;102125.13;;;20.79;83.00
75418;BME280;63997;52.112;5.420;2023-10-09T11:26:01;102119.38;;;20.80;82.61
75418;BME280;63997;52.112;5.420;2023-10-09T11:29:11;102117.53;;;20.84;83.00
75418;BME280;63997;52.112;5.420;2023-10-09T11:32:00;102131.03;;;20.84;81.78
75418;BME280;63997;52.112;5.420;2023-10-09T11:34:33;102128.34;;;20.84;80.17
75418;BME280;63997;52.112;5.420;2023-10-09T11:37:12;102126.00;;;20.83;79.78
75418;BME280;63997;52.112;5.420;2023-10-09T11:39:41;102125.50;;;20.77;79.04
75418;BME280;63997;52.112;5.420;2023-10-09T11:42:24;102117.81;;;20.79;80.30
75418;BME280;63997;52.112;5.420;2023-10-09T11:45:21;102117.59;;;20.88;81.17
75418;BME280;63997;52.112;5.420;2023-10-09T11:47:52;102112.53;;;20.86;79.47
75418;BME280;63997;52.112;5.420;2023-10-09T11:50:44;102119.53;;;20.88;79.97
75418;BME280;63997;52.112;5.420;2023-10-09T11:53:41;102117.34;;;20.97;80.85
75418;BME280;63997;52.112;5.420;2023-10-09T11:56:16;102115.06;;;20.99;79.91
75418;BME280;63997;52.112;5.420;2023-10-09T11:58:49;102122.06;;;21.00;80.75
75418;BME280;63997;52.112;5.420;2023-10-09T12:01:21;102115.38;;;20.94;78.95
75418;BME280;63997;52.112;5.420;2023-10-09T12:03:53;102120.34;;;20.92;80.11
75418;BME280;63997;52.112;5.420;2023-10-09T12:06:23;102110.31;;;20.92;80.33
75418;BME280;63997;52.112;5.420;2023-10-09T12:08:49;102112.69;;;20.94;81.38
75418;BME280;63997;52.112;5.420;2023-10-09T12:11:16;102107.28;;;20.94;81.34
75418;BME280;63997;52.112;5.420;2023-10-09T12:13:50;102108.53;;;21.00;81.20
75418;BME280;63997;52.112;5.420;2023-10-09T12:16:23;102104.72;;;21.04;80.33
75418;BME280;63997;52.112;5.420;2023-10-09T12:18:54;102106.81;;;21.11;81.28
75418;BME280;63997;52.112;5.420;2023-10-09T12:21:21;102099.81;;;21.10;80.21
75418;BME280;63997;52.112;5.420;2023-10-09T12:23:49;102096.50;;;20.97;79.96
75418;BME280;63997;52.112;5.420;2023-10-09T12:26:16;102098.00;;;20.95;81.14
75418;BME280;63997;52.112;5.420;2023-10-09T12:28:44;102099.50;;;20.92;80.03
75418;BME280;63997;52.112;5.420;2023-10-09T12:31:13;102101.28;;;20.84;80.60
75418;BME280;63997;52.112;5.420;2023-10-09T12:33:47;102092.63;;;20.75;80.10
75418;BME280;63997;52.112;5.420;2023-10-09T12:36:20;102088.22;;;20.67;79.71
75418;BME280;63997;52.112;5.420;2023-10-09T12:41:16;102092.66;;;20.56;81.31
75418;BME280;63997;52.112;5.420;2023-10-09T12:43:55;102102.72;;;20.59;82.50
75418;BME280;63997;52.112;5.420;2023-10-09T12:46:25;102094.28;;;20.60;82.88
75418;BME280;63997;52.112;5.420;2023-10-09T12:48:53;102100.88;;;20.63;83.16
75418;BME280;63997;52.112;5.420;2023-10-09T12:51:23;102102.16;;;20.69;83.47
75418;BME280;63997;52.112;5.420;2023-10-09T12:53:56;102106.50;;;20.74;83.48
75418;BME280;63997;52.112;5.420;2023-10-09T12:56:28;102101.38;;;20.69;82.93
75418;BME280;63997;52.112;5.420;2023-10-09T12:59:05;102104.44;;;20.67;82.63
75418;BME280;63997;52.112;5.420;2023-10-09T13:01:34;102104.38;;;20.64;82.92
75418;BME280;63997;52.112;5.420;2023-10-09T13:04:11;102105.88;;;20.61;82.85
75418;BME280;63997;52.112;5.420;2023-10-09T13:06:41;102119.31;;;20.57;82.78
75418;BME280;63997;52.112;5.420;2023-10-09T13:09:11;102113.69;;;20.47;81.97
75418;BME280;63997;52.112;5.420;2023-10-09T13:11:40;102119.34;;;20.42;82.79
75418;BME280;63997;52.112;5.420;2023-10-09T13:14:07;102118.16;;;20.39;83.66
75418;BME280;63997;52.112;5.420;2023-10-09T13:16:49;102115.03;;;20.37;83.85
75418;BME280;63997;52.112;5.420;2023-10-09T13:19:20;102105.69;;;20.34;82.75
75418;BME280;63997;52.112;5.420;2023-10-09T13:21:50;102111.50;;;20.37;82.58
75418;BME280;63997;52.112;5.420;2023-10-09T13:24:17;102115.09;;;20.41;83.57
75418;BME280;63997;52.112;5.420;2023-10-09T13:26:44;102114.72;;;20.42;83.04
75418;BME280;63997;52.112;5.420;2023-10-09T13:29:18;102116.66;;;20.42;83.10
75418;BME280;63997;52.112;5.420;2023-10-09T13:31:52;102107.84;;;20.45;84.11
75418;BME280;63997;52.112;5.420;2023-10-09T13:34:25;102111.44;;;20.49;83.76
75418;BME280;63997;52.112;5.420;2023-10-09T13:36:55;102114.84;;;20.46;83.70
75418;BME280;63997;52.112;5.420;2023-10-09T13:39:23;102118.31;;;20.46;84.17
75418;BME280;63997;52.112;5.420;2023-10-09T13:41:54;102117.41;;;20.42;84.07
75418;BME280;63997;52.112;5.420;2023-10-09T13:44:30;102117.72;;;20.37;83.52
75418;BME280;63997;52.112;5.420;2023-10-09T13:46:58;102109.53;;;20.33;83.54
75418;BME280;63997;52.112;5.420;2023-10-09T13:49:25;102105.28;;;20.32;82.41
75418;BME280;63997;52.112;5.420;2023-10-09T13:52:02;102115.63;;;20.30;82.30
75418;BME280;63997;52.112;5.420;2023-10-09T13:54:30;102116.50;;;20.34;81.61
75418;BME280;63997;52.112;5.420;2023-10-09T13:57:00;102106.47;;;20.35;81.47
75418;BME280;63997;52.112;5.420;2023-10-09T13:59:31;102100.72;;;20.37;82.04